sensor_id;sensor_type;location;lat;lon;timestamp;pressure;altitude;pressure_sealevel;temperature;humidity
42125;BME280;27787;44.594;11.046;2023-05-03T00:01:50;101415.72;;;12.93;100.00
42125;BME280;27787;44.594;11.046;2023-05-03T00:04:34;101409.56;;;12.94;100.00
42125;BME280;27787;44.594;11.046;2023-05-03T00:07:19;101408.66;;;12.92;100.00
42125;BME280;27787;44.594;11.046;2023-05-03T00:10:05;101417.47;;;12.91;100.00
42125;BME280;27787;44.594;11.046;2023-05-03T00:12:49;101406.91;;;12.93;100.00
42125;BME280;27787;44.594;11.046;2023-05-03T00:15:34;101407.78;;;12.93;100.00
42125;BME280;27787;44.594;11.046;2023-05-03T00:18:18;101406.88;;;12.91;100.00
42125;BME280;27787;44.594;11.046;2023-05-03T00:21:03;101403.28;;;12.85;100.00
42125;BME280;27787;44.594;11.046;2023-05-03T00:23:47;101405.91;;;12.80;100.00
42125;BME280;27787;44.594;11.046;2023-05-03T00:26:30;101400.59;;;12.79;100.00
42125;BME280;27787;44.594;11.046;2023-05-03T00:29:16;101399.69;;;12.77;100.00
42125;BME280;27787;44.594;11.046;2023-05-03T00:32:01;101400.59;;;12.79;100.00
42125;BME280;27787;44.594;11.046;2023-05-03T00:34:46;101404.13;;;12.81;100.00
42125;BME280;27787;44.594;11.046;2023-05-03T00:37:30;101407.66;;;12.77;100.00
42125;BME280;27787;44.594;11.046;2023-05-03T00:40:14;101410.31;;;12.78;100.00
42125;BME280;27787;44.594;11.046;2023-05-03T00:43:01;101408.56;;;12.80;100.00
42125;BME280;27787;44.594;11.046;2023-05-03T00:45:46;101416.53;;;12.88;100.00
42125;BME280;27787;44.594;11.046;2023-05-03T00:48:30;101407.72;;;12.87;100.00
42125;BME280;27787;44.594;11.046;2023-05-03T00:51:15;101405.94;;;12.85;100.00
42125;BME280;27787;44.594;11.046;2023-05-03T00:53:59;101410.31;;;12.81;100.00
42125;BME280;27787;44.594;11.046;2023-05-03T00:56:43;101400.59;;;12.77;100.00
42125;BME280;27787;44.594;11.046;2023-05-03T00:59:27;101406.72;;;12.75;100.00
42125;BME280;27787;44.594;11.046;2023-05-03T01:02:12;101404.94;;;12.74;100.00
42125;BME280;27787;44.594;11.046;2023-05-03T01:04:56;101402.28;;;12.72;100.00
42125;BME280;27787;44.594;11.046;2023-05-03T01:08:12;101400.50;;;12.69;100.00
42125;BME280;27787;44.594;11.046;2023-05-03T01:11:22;101394.34;;;12.72;100.00
42125;BME280;27787;44.594;11.046;2023-05-03T01:17:06;101393.34;;;12.62;100.00
42125;BME280;27787;44.594;11.046;2023-05-03T01:19:57;101392.44;;;12.54;100.00
42125;BME280;27787;44.594;11.046;2023-05-03T01:25:43;101387.94;;;12.47;100.00
42125;BME280;27787;44.594;11.046;2023-05-03T01:28:27;101396.75;;;12.46;100.00
42125;BME280;27787;44.594;11.046;2023-05-03T01:31:14;101395.84;;;12.43;100.00
42125;BME280;27787;44.594;11.046;2023-05-03T01:36:45;101390.53;;;12.43;100.00
42125;BME280;27787;44.594;11.046;2023-05-03T01:39:37;101393.19;;;12.44;100.00
42125;BME280;27787;44.594;11.046;2023-05-03T01:42:25;101399.38;;;12.45;100.00
42125;BME280;27787;44.594;11.046;2023-05-03T01:45:10;101393.19;;;12.43;100.00
42125;BME280;27787;44.594;11.046;2023-05-03T01:47:55;101396.72;;;12.42;100.00
42125;BME280;27787;44.594;11.046;2023-05-03T01:50:39;101393.19;;;12.41;100.00
42125;BME280;27787;44.594;11.046;2023-05-03T01:53:24;101398.44;;;12.38;100.00
42125;BME280;27787;44.594;11.046;2023-05-03T01:56:08;101400.22;;;12.39;100.00
42125;BME280;27787;44.594;11.046;2023-05-03T01:58:53;101394.06;;;12.40;100.00
42125;BME280;27787;44.594;11.046;2023-05-03T02:01:36;101402.91;;;12.42;100.00
42125;BME280;27787;44.594;11.046;2023-05-03T02:04:20;101398.47;;;12.43;100.00
42125;BME280;27787;44.594;11.046;2023-05-03T02:07:04;101397.59;;;12.42;100.00
42125;BME280;27787;44.594;11.046;2023-05-03T02:09:48;101403.78;;;12.44;100.00
42125;BME280;27787;44.594;11.046;2023-05-03T02:12:34;101394.09;;;12.46;100.00
42125;BME280;27787;44.594;11.046;2023-05-03T02:15:18;101404.69;;;12.46;100.00
42125;BME280;27787;44.594;11.046;2023-05-03T02:18:03;101401.16;;;12.46;100.00
42125;BME280;27787;44.594;11.046;2023-05-03T02:20:48;101397.59;;;12.44;100.00
42125;BME280;27787;44.594;11.046;2023-05-03T02:23:32;101401.16;;;12.47;100.00
42125;BME280;27787;44.594;11.046;2023-05-03T02:26:16;101398.56;;;12.50;100.00
42125;BME280;27787;44.594;11.046;2023-05-03T02:29:00;101394.16;;;12.51;100.00
42125;BME280;27787;44.594;11.046;2023-05-03T02:31:47;101393.28;;;12.50;100.00
42125;BME280;27787;44.594;11.046;2023-05-03T02:34:31;101388.88;;;12.51;100.00
42125;BME280;27787;44.594;11.046;2023-05-03T02:37:16;101395.94;;;12.50;100.00
42125;BME280;27787;44.594;11.046;2023-05-03T02:40:01;101394.09;;;12.48;100.00
42125;BME280;27787;44.594;11.046;2023-05-03T02:42:46;101388.81;;;12.48;100.00
42125;BME280;27787;44.594;11.046;2023-05-03T02:45:36;101391.44;;;12.46;100.00
42125;BME280;27787;44.594;11.046;2023-05-03T02:48:21;101388.81;;;12.46;100.00
42125;BME280;27787;44.594;11.046;2023-05-03T02:51:05;101389.69;;;12.45;100.00
42125;BME280;27787;44.594;11.046;2023-05-03T02:53:50;101390.56;;;12.44;100.00
42125;BME280;27787;44.594;11.046;2023-05-03T02:56:34;101387.03;;;12.44;100.00
42125;BME280;27787;44.594;11.046;2023-05-03T02:59:19;101388.78;;;12.45;100.00
42125;BME280;27787;44.594;11.046;2023-05-03T03:02:03;101387.00;;;12.42;100.00
42125;BME280;27787;44.594;11.046;2023-05-03T03:04:49;101401.16;;;12.44;100.00
42125;BME280;27787;44.594;11.046;2023-05-03T03:07:36;101395.84;;;12.43;100.00
42125;BME280;27787;44.594;11.046;2023-05-03T03:10:21;101395.81;;;12.39;100.00
42125;BME280;27787;44.594;11.046;2023-05-03T03:13:06;101399.28;;;12.35;100.00
42125;BME280;27787;44.594;11.046;2023-05-03T03:15:54;101398.38;;;12.32;100.00
42125;BME280;27787;44.594;11.046;2023-05-03T03:18:39;101399.25;;;12.31;100.00
42125;BME280;27787;44.594;11.046;2023-05-03T03:21:25;101407.19;;;12.31;100.00
42125;BME280;27787;44.594;11.046;2023-05-03T03:24:11;101400.13;;;12.31;100.00
42125;BME280;27787;44.594;11.046;2023-05-03T03:26:56;101407.22;;;12.34;100.00
42125;BME280;27787;44.594;11.046;2023-05-03T03:29:42;101405.47;;;12.36;100.00
42125;BME280;27787;44.594;11.046;2023-05-03T03:32:29;101411.69;;;12.38;100.00
42125;BME280;27787;44.594;11.046;2023-05-03T03:35:14;101408.09;;;12.36;100.00
42125;BME280;27787;44.594;11.046;2023-05-03T03:37:58;101409.03;;;12.38;100.00
42125;BME280;27787;44.594;11.046;2023-05-03T03:40:43;101403.69;;;12.33;100.00
42125;BME280;27787;44.594;11.046;2023-05-03T03:43:27;101403.66;;;12.32;100.00
42125;BME280;27787;44.594;11.046;2023-05-03T03:46:11;101416.91;;;12.32;100.00
42125;BME280;27787;44.594;11.046;2023-05-03T03:48:56;101417.81;;;12.34;100.00
42125;BME280;27787;44.594;11.046;2023-05-03T03:51:43;101423.97;;;12.34;100.00
42125;BME280;27787;44.594;11.046;2023-05-03T03:54:27;101424.03;;;12.37;100.00
42125;BME280;27787;44.594;11.046;2023-05-03T03:57:11;101429.34;;;12.37;100.00
42125;BME280;27787;44.594;11.046;2023-05-03T03:59:56;101436.41;;;12.38;100.00
42125;BME280;27787;44.594;11.046;2023-05-03T04:02:41;101439.03;;;12.37;100.00
42125;BME280;27787;44.594;11.046;2023-05-03T04:05:32;101432.81;;;12.36;100.00
42125;BME280;27787;44.594;11.046;2023-05-03T04:08:17;101438.19;;;12.39;100.00
42125;BME280;27787;44.594;11.046;2023-05-03T04:11:01;101442.59;;;12.39;100.00
42125;BME280;27787;44.594;11.046;2023-05-03T04:13:48;101445.22;;;12.39;100.00
42125;BME280;27787;44.594;11.046;2023-05-03T04:16:33;101446.16;;;12.44;100.00
42125;BME280;27787;44.594;11.046;2023-05-03T04:19:19;101449.69;;;12.43;100.00
42125;BME280;27787;44.594;11.046;2023-05-03T04:22:05;101447.03;;;12.43;100.00
42125;BME280;27787;44.594;11.046;2023-05-03T04:24:50;101437.34;;;12.45;100.00
42125;BME280;27787;44.594;11.046;2023-05-03T04:27:34;101451.44;;;12.44;100.00
42125;BME280;27787;44.594;11.046;2023-05-03T04:30:19;101451.44;;;12.44;100.00
42125;BME280;27787;44.594;11.046;2023-05-03T04:33:08;101455.88;;;12.44;100.00
42125;BME280;27787;44.594;11.046;2023-05-03T04:35:54;101455.88;;;12.45;100.00
42125;BME280;27787;44.594;11.046;2023-05-03T04:38:38;101463.84;;;12.47;100.00
42125;BME280;27787;44.594;11.046;2023-05-03T04:41:23;101457.66;;;12.46;100.00
42125;BME280;27787;44.594;11.046;2023-05-03T04:44:08;101466.50;;;12.50;100.00
42125;BME280;27787;44.594;11.046;2023-05-03T04:46:53;101460.31;;;12.49;100.00
42125;BME280;27787;44.594;11.046;2023-05-03T04:49:37;101468.25;;;12.48;100.00
42125;BME280;27787;44.594;11.046;2023-05-03T04:52:24;101477.97;;;12.47;100.00
42125;BME280;27787;44.594;11.046;2023-05-03T04:55:11;101474.41;;;12.45;100.00
42125;BME280;27787;44.594;11.046;2023-05-03T04:57:55;101483.25;;;12.47;100.00
42125;BME280;27787;44.594;11.046;2023-05-03T05:00:40;101483.28;;;12.49;100.00
42125;BME280;27787;44.594;11.046;2023-05-03T05:03:30;101490.38;;;12.51;100.00
42125;BME280;27787;44.594;11.046;2023-05-03T05:06:17;101490.41;;;12.54;100.00
42125;BME280;27787;44.594;11.046;2023-05-03T05:09:02;101491.31;;;12.56;100.00
42125;BME280;27787;44.594;11.046;2023-05-03T05:11:47;101492.16;;;12.54;100.00
42125;BME280;27787;44.594;11.046;2023-05-03T05:14:32;101501.00;;;12.54;100.00
42125;BME280;27787;44.594;11.046;2023-05-03T05:17:16;101508.94;;;12.54;100.00
42125;BME280;27787;44.594;11.046;2023-05-03T05:20:00;101511.59;;;12.54;100.00
42125;BME280;27787;44.594;11.046;2023-05-03T05:22:46;101508.97;;;12.57;100.00
42125;BME280;27787;44.594;11.046;2023-05-03T05:25:31;101511.63;;;12.59;100.00
42125;BME280;27787;44.594;11.046;2023-05-03T05:28:17;101512.53;;;12.59;100.00
42125;BME280;27787;44.594;11.046;2023-05-03T05:31:02;101518.72;;;12.60;100.00
42125;BME280;27787;44.594;11.046;2023-05-03T05:33:48;101516.97;;;12.62;100.00
42125;BME280;27787;44.594;11.046;2023-05-03T05:36:32;101523.09;;;12.58;100.00
42125;BME280;27787;44.594;11.046;2023-05-03T05:39:19;101528.41;;;12.58;100.00
42125;BME280;27787;44.594;11.046;2023-05-03T05:42:05;101524.03;;;12.61;100.00
42125;BME280;27787;44.594;11.046;2023-05-03T05:44:49;101538.19;;;12.63;100.00
42125;BME280;27787;44.594;11.046;2023-05-03T05:47:36;101536.38;;;12.59;100.00
42125;BME280;27787;44.594;11.046;2023-05-03T05:50:21;101533.69;;;12.58;100.00
42125;BME280;27787;44.594;11.046;2023-05-03T05:53:13;101538.09;;;12.56;100.00
42125;BME280;27787;44.594;11.046;2023-05-03T05:56:03;101539.00;;;12.56;100.00
42125;BME280;27787;44.594;11.046;2023-05-03T05:58:50;101543.38;;;12.54;100.00
42125;BME280;27787;44.594;11.046;2023-05-03T06:01:35;101544.28;;;12.56;100.00
42125;BME280;27787;44.594;11.046;2023-05-03T06:04:19;101547.81;;;12.55;100.00
42125;BME280;27787;44.594;11.046;2023-05-03T06:07:04;101552.22;;;12.55;100.00
42125;BME280;27787;44.594;11.046;2023-05-03T06:09:49;101555.72;;;12.52;100.00
42125;BME280;27787;44.594;11.046;2023-05-03T06:12:33;101558.34;;;12.51;100.00
42125;BME280;27787;44.594;11.046;2023-05-03T06:15:17;101566.31;;;12.51;100.00
42125;BME280;27787;44.594;11.046;2023-05-03T06:18:02;101565.41;;;12.50;100.00
42125;BME280;27787;44.594;11.046;2023-05-03T06:20:48;101559.28;;;12.54;100.00
42125;BME280;27787;44.594;11.046;2023-05-03T06:23:33;101560.22;;;12.61;100.00
42125;BME280;27787;44.594;11.046;2023-05-03T06:26:23;101559.41;;;12.65;100.00
42125;BME280;27787;44.594;11.046;2023-05-03T06:29:08;101559.44;;;12.69;100.00
42125;BME280;27787;44.594;11.046;2023-05-03T06:31:53;101564.78;;;12.76;100.00
42125;BME280;27787;44.594;11.046;2023-05-03T06:34:37;101566.63;;;12.80;100.00
42125;BME280;27787;44.594;11.046;2023-05-03T06:37:22;101563.09;;;12.79;100.00
42125;BME280;27787;44.594;11.046;2023-05-03T06:40:06;101571.94;;;12.81;100.00
42125;BME280;27787;44.594;11.046;2023-05-03T06:42:50;101578.16;;;12.85;100.00
42125;BME280;27787;44.594;11.046;2023-05-03T06:45:53;101580.84;;;12.88;100.00
42125;BME280;27787;44.594;11.046;2023-05-03T06:48:38;101574.72;;;12.90;100.00
42125;BME280;27787;44.594;11.046;2023-05-03T06:51:23;101585.31;;;12.92;100.00
42125;BME280;27787;44.594;11.046;2023-05-03T06:54:11;101580.88;;;12.89;100.00
42125;BME280;27787;44.594;11.046;2023-05-03T06:56:54;101587.06;;;12.90;100.00
42125;BME280;27787;44.594;11.046;2023-05-03T06:59:38;101585.31;;;12.90;100.00
42125;BME280;27787;44.594;11.046;2023-05-03T07:02:23;101588.84;;;12.91;100.00
42125;BME280;27787;44.594;11.046;2023-05-03T07:05:09;101595.97;;;12.96;100.00
42125;BME280;27787;44.594;11.046;2023-05-03T07:07:53;101587.13;;;12.97;100.00
42125;BME280;27787;44.594;11.046;2023-05-03T07:10:37;101583.63;;;13.00;100.00
42125;BME280;27787;44.594;11.046;2023-05-03T07:13:20;101580.09;;;13.01;100.00
42125;BME280;27787;44.594;11.046;2023-05-03T07:16:05;101586.34;;;13.06;100.00
42125;BME280;27787;44.594;11.046;2023-05-03T07:18:49;101580.16;;;13.04;100.00
42125;BME280;27787;44.594;11.046;2023-05-03T07:21:33;101581.94;;;13.05;100.00
42125;BME280;27787;44.594;11.046;2023-05-03T07:24:17;101582.84;;;13.09;100.00
42125;BME280;27787;44.594;11.046;2023-05-03T07:27:01;101583.72;;;13.08;100.00
42125;BME280;27787;44.594;11.046;2023-05-03T07:29:46;101577.56;;;13.12;100.00
42125;BME280;27787;44.594;11.046;2023-05-03T07:32:31;101581.97;;;13.11;100.00
42125;BME280;27787;44.594;11.046;2023-05-03T07:35:15;101580.22;;;13.12;100.00
42125;BME280;27787;44.594;11.046;2023-05-03T07:37:59;101582.00;;;13.14;100.00
42125;BME280;27787;44.594;11.046;2023-05-03T07:40:43;101587.34;;;13.16;100.00
42125;BME280;27787;44.594;11.046;2023-05-03T07:43:27;101588.19;;;13.15;100.00
42125;BME280;27787;44.594;11.046;2023-05-03T07:46:12;101582.94;;;13.16;100.00
42125;BME280;27787;44.594;11.046;2023-05-03T07:48:57;101584.75;;;13.19;100.00
42125;BME280;27787;44.594;11.046;2023-05-03T07:51:41;101582.13;;;13.22;100.00
42125;BME280;27787;44.594;11.046;2023-05-03T07:54:26;101585.75;;;13.32;100.00
42125;BME280;27787;44.594;11.046;2023-05-03T07:57:13;101586.66;;;13.37;100.00
42125;BME280;27787;44.594;11.046;2023-05-03T07:59:57;101593.78;;;13.41;100.00
42125;BME280;27787;44.594;11.046;2023-05-03T08:02:42;101598.25;;;13.43;100.00
42125;BME280;27787;44.594;11.046;2023-05-03T08:05:26;101593.81;;;13.44;100.00
42125;BME280;27787;44.594;11.046;2023-05-03T08:08:10;101601.81;;;13.47;100.00
42125;BME280;27787;44.594;11.046;2023-05-03T08:10:57;101596.50;;;13.48;100.00
42125;BME280;27787;44.594;11.046;2023-05-03T08:13:41;101592.09;;;13.52;100.00
42125;BME280;27787;44.594;11.046;2023-05-03T08:16:25;101602.78;;;13.55;100.00
42125;BME280;27787;44.594;11.046;2023-05-03T08:19:09;101595.72;;;13.58;100.00
42125;BME280;27787;44.594;11.046;2023-05-03T08:21:53;101597.53;;;13.64;100.00
42125;BME280;27787;44.594;11.046;2023-05-03T08:24:38;101599.38;;;13.73;100.00
42125;BME280;27787;44.594;11.046;2023-05-03T08:27:22;101594.97;;;13.78;100.00
42125;BME280;27787;44.594;11.046;2023-05-03T08:30:09;101602.97;;;13.81;100.00
42125;BME280;27787;44.594;11.046;2023-05-03T08:32:53;101606.47;;;13.80;100.00
42125;BME280;27787;44.594;11.046;2023-05-03T08:35:37;101607.41;;;13.83;100.00
42125;BME280;27787;44.594;11.046;2023-05-03T08:38:22;101603.00;;;13.87;100.00
42125;BME280;27787;44.594;11.046;2023-05-03T08:41:25;101601.25;;;13.87;100.00
42125;BME280;27787;44.594;11.046;2023-05-03T08:44:11;101596.81;;;13.88;100.00
42125;BME280;27787;44.594;11.046;2023-05-03T08:46:58;101601.25;;;13.91;100.00
42125;BME280;27787;44.594;11.046;2023-05-03T08:49:43;101600.44;;;13.96;100.00
42125;BME280;27787;44.594;11.046;2023-05-03T08:52:27;101604.00;;;14.03;100.00
42125;BME280;27787;44.594;11.046;2023-05-03T08:55:12;101603.16;;;14.07;100.00
42125;BME280;27787;44.594;11.046;2023-05-03T08:57:58;101604.06;;;14.13;100.00
42125;BME280;27787;44.594;11.046;2023-05-03T09:00:43;101606.75;;;14.18;100.00
42125;BME280;27787;44.594;11.046;2023-05-03T09:03:27;101613.88;;;14.22;100.00
42125;BME280;27787;44.594;11.046;2023-05-03T09:06:21;101613.88;;;14.25;100.00
42125;BME280;27787;44.594;11.046;2023-05-03T09:09:08;101611.25;;;14.30;100.00
42125;BME280;27787;44.594;11.046;2023-05-03T09:11:53;101609.53;;;14.38;100.00
42125;BME280;27787;44.594;11.046;2023-05-03T09:14:42;101614.06;;;14.47;100.00
42125;BME280;27787;44.594;11.046;2023-05-03T09:17:27;101614.06;;;14.53;100.00
42125;BME280;27787;44.594;11.046;2023-05-03T09:20:11;101605.22;;;14.54;100.00
42125;BME280;27787;44.594;11.046;2023-05-03T09:22:56;101614.13;;;14.66;100.00
42125;BME280;27787;44.594;11.046;2023-05-03T09:25:49;101618.59;;;14.72;100.00
42125;BME280;27787;44.594;11.046;2023-05-03T09:28:40;101603.53;;;14.77;100.00
42125;BME280;27787;44.594;11.046;2023-05-03T09:31:30;101601.78;;;14.79;100.00
42125;BME280;27787;44.594;11.046;2023-05-03T09:34:21;101610.63;;;14.83;100.00
42125;BME280;27787;44.594;11.046;2023-05-03T09:37:08;101609.78;;;14.87;100.00
42125;BME280;27787;44.594;11.046;2023-05-03T09:40:04;101607.13;;;14.90;100.00
42125;BME280;27787;44.594;11.046;2023-05-03T09:43:11;101610.69;;;14.90;100.00
42125;BME280;27787;44.594;11.046;2023-05-03T09:46:11;101611.56;;;14.94;100.00
42125;BME280;27787;44.594;11.046;2023-05-03T09:48:55;101608.91;;;14.92;100.00
42125;BME280;27787;44.594;11.046;2023-05-03T09:51:41;101604.47;;;14.91;100.00
42125;BME280;27787;44.594;11.046;2023-05-03T09:54:27;101608.03;;;14.92;100.00
42125;BME280;27787;44.594;11.046;2023-05-03T09:57:12;101606.25;;;14.91;100.00
42125;BME280;27787;44.594;11.046;2023-05-03T09:59:57;101601.81;;;14.90;100.00
42125;BME280;27787;44.594;11.046;2023-05-03T10:02:43;101604.47;;;14.94;100.00
42125;BME280;27787;44.594;11.046;2023-05-03T10:05:30;101602.75;;;14.98;100.00
42125;BME280;27787;44.594;11.046;2023-05-03T10:08:39;101591.22;;;15.00;100.00
42125;BME280;27787;44.594;11.046;2023-05-03T10:11:26;101598.31;;;15.09;100.00
42125;BME280;27787;44.594;11.046;2023-05-03T10:14:10;101594.78;;;15.15;100.00
42125;BME280;27787;44.594;11.046;2023-05-03T10:17:00;101594.78;;;15.12;100.00
42125;BME280;27787;44.594;11.046;2023-05-03T10:19:53;101594.78;;;15.15;100.00
42125;BME280;27787;44.594;11.046;2023-05-03T10:28:56;101588.59;;;15.19;100.00
42125;BME280;27787;44.594;11.046;2023-05-03T10:31:46;101585.03;;;15.20;100.00
42125;BME280;27787;44.594;11.046;2023-05-03T10:34:33;101586.81;;;15.18;100.00
42125;BME280;27787;44.594;11.046;2023-05-03T10:37:32;101583.25;;;15.22;100.00
42125;BME280;27787;44.594;11.046;2023-05-03T10:40:22;101587.72;;;15.26;100.00
42125;BME280;27787;44.594;11.046;2023-05-03T10:46:32;101573.53;;;15.42;100.00
42125;BME280;27787;44.594;11.046;2023-05-03T10:49:20;101569.97;;;15.46;100.00
42125;BME280;27787;44.594;11.046;2023-05-03T10:52:57;101566.44;;;15.44;100.00
42125;BME280;27787;44.594;11.046;2023-05-03T10:55:34;101570.00;;;15.52;100.00
42125;BME280;27787;44.594;11.046;2023-05-03T10:58:18;101566.44;;;15.56;100.00
42125;BME280;27787;44.594;11.046;2023-05-03T11:01:08;101559.38;;;15.60;100.00
42125;BME280;27787;44.594;11.046;2023-05-03T11:04:09;101561.16;;;15.66;100.00
42125;BME280;27787;44.594;11.046;2023-05-03T11:06:54;101566.47;;;15.69;100.00
42125;BME280;27787;44.594;11.046;2023-05-03T11:09:41;101556.72;;;15.71;100.00
42125;BME280;27787;44.594;11.046;2023-05-03T11:12:26;101553.16;;;15.73;100.00
42125;BME280;27787;44.594;11.046;2023-05-03T11:15:10;101546.94;;;15.82;100.00
42125;BME280;27787;44.594;11.046;2023-05-03T11:17:56;101546.94;;;15.82;100.00
42125;BME280;27787;44.594;11.046;2023-05-03T11:20:40;101551.34;;;15.84;100.00
42125;BME280;27787;44.594;11.046;2023-05-03T11:23:28;101545.16;;;15.93;100.00
42125;BME280;27787;44.594;11.046;2023-05-03T11:26:12;101553.13;;;15.95;100.00
42125;BME280;27787;44.594;11.046;2023-05-03T11:28:57;101552.22;;;15.96;100.00
42125;BME280;27787;44.594;11.046;2023-05-03T11:31:41;101556.66;;;15.97;100.00
42125;BME280;27787;44.594;11.046;2023-05-03T11:34:26;101552.25;;;15.94;100.00
42125;BME280;27787;44.594;11.046;2023-05-03T11:37:10;101546.91;;;15.94;98.83
42125;BME280;27787;44.594;11.046;2023-05-03T11:39:54;101547.81;;;15.95;99.45
42125;BME280;27787;44.594;11.046;2023-05-03T11:42:49;101551.34;;;15.97;100.00
42125;BME280;27787;44.594;11.046;2023-05-03T11:45:41;101542.44;;;15.99;99.58
42125;BME280;27787;44.594;11.046;2023-05-03T11:48:27;101543.34;;;16.03;98.74
42125;BME280;27787;44.594;11.046;2023-05-03T11:51:22;101548.66;;;16.07;98.84
42125;BME280;27787;44.594;11.046;2023-05-03T11:54:07;101536.22;;;16.11;98.97
42125;BME280;27787;44.594;11.046;2023-05-03T11:56:54;101543.28;;;16.13;97.62
42125;BME280;27787;44.594;11.046;2023-05-03T11:59:41;101530.88;;;16.12;96.05
42125;BME280;27787;44.594;11.046;2023-05-03T12:02:25;101533.56;;;16.15;96.78
42125;BME280;27787;44.594;11.046;2023-05-03T12:05:11;101540.63;;;16.18;93.92
42125;BME280;27787;44.594;11.046;2023-05-03T12:07:55;101533.50;;;16.23;94.66
42125;BME280;27787;44.594;11.046;2023-05-03T12:10:41;101525.50;;;16.29;94.64
42125;BME280;27787;44.594;11.046;2023-05-03T12:13:30;101529.94;;;16.30;92.52
42125;BME280;27787;44.594;11.046;2023-05-03T12:16:17;101525.50;;;16.31;91.35
42125;BME280;27787;44.594;11.046;2023-05-03T12:19:03;101523.69;;;16.36;91.23
42125;BME280;27787;44.594;11.046;2023-05-03T12:21:48;101528.09;;;16.47;91.98
42125;BME280;27787;44.594;11.046;2023-05-03T12:24:32;101528.06;;;16.55;90.55
42125;BME280;27787;44.594;11.046;2023-05-03T12:27:16;101522.69;;;16.58;89.23
42125;BME280;27787;44.594;11.046;2023-05-03T12:30:00;101522.66;;;16.64;90.40
42125;BME280;27787;44.594;11.046;2023-05-03T12:32:44;101531.59;;;16.68;89.75
42125;BME280;27787;44.594;11.046;2023-05-03T12:35:28;101529.75;;;16.73;90.56
42125;BME280;27787;44.594;11.046;2023-05-03T12:38:12;101510.19;;;16.75;88.21
42125;BME280;27787;44.594;11.046;2023-05-03T12:40:56;101514.59;;;16.84;87.82
42125;BME280;27787;44.594;11.046;2023-05-03T12:43:41;101515.50;;;16.80;83.83
42125;BME280;27787;44.594;11.046;2023-05-03T12:46:28;101513.72;;;16.77;83.70
42125;BME280;27787;44.594;11.046;2023-05-03T12:49:12;101512.81;;;16.83;83.38
42125;BME280;27787;44.594;11.046;2023-05-03T12:51:57;101510.06;;;16.92;83.13
42125;BME280;27787;44.594;11.046;2023-05-03T12:54:43;101503.78;;;17.01;81.71
42125;BME280;27787;44.594;11.046;2023-05-03T12:57:29;101497.47;;;17.14;82.65
42125;BME280;27787;44.594;11.046;2023-05-03T13:00:14;101505.38;;;17.26;83.22
42125;BME280;27787;44.594;11.046;2023-05-03T13:03:00;101499.13;;;17.29;82.20
42125;BME280;27787;44.594;11.046;2023-05-03T13:05:45;101500.00;;;17.32;81.42
42125;BME280;27787;44.594;11.046;2023-05-03T13:08:30;101506.22;;;17.33;79.84
42125;BME280;27787;44.594;11.046;2023-05-03T13:11:14;101501.78;;;17.33;78.05
42125;BME280;27787;44.594;11.046;2023-05-03T13:14:01;101497.31;;;17.34;76.96
42125;BME280;27787;44.594;11.046;2023-05-03T13:16:47;101493.69;;;17.39;77.91
42125;BME280;27787;44.594;11.046;2023-05-03T13:19:35;101488.31;;;17.46;78.46
42125;BME280;27787;44.594;11.046;2023-05-03T13:22:19;101484.63;;;17.56;79.23
42125;BME280;27787;44.594;11.046;2023-05-03T13:25:03;101488.09;;;17.67;80.58
42125;BME280;27787;44.594;11.046;2023-05-03T13:27:47;101484.44;;;17.80;79.67
42125;BME280;27787;44.594;11.046;2023-05-03T13:30:35;101480.69;;;17.95;78.62
42125;BME280;27787;44.594;11.046;2023-05-03T13:33:19;101477.06;;;18.02;76.90
42125;BME280;27787;44.594;11.046;2023-05-03T13:36:04;101480.53;;;18.09;73.41
42125;BME280;27787;44.594;11.046;2023-05-03T13:38:49;101483.16;;;18.15;72.32
42125;BME280;27787;44.594;11.046;2023-05-03T13:41:34;101472.22;;;18.32;72.88
42125;BME280;27787;44.594;11.046;2023-05-03T13:44:22;101464.84;;;18.49;71.33
42125;BME280;27787;44.594;11.046;2023-05-03T13:47:08;101463.75;;;18.67;71.49
42125;BME280;27787;44.594;11.046;2023-05-03T13:49:55;101470.66;;;18.81;71.48
42125;BME280;27787;44.594;11.046;2023-05-03T13:52:43;101461.69;;;18.85;71.07
42125;BME280;27787;44.594;11.046;2023-05-03T13:55:27;101469.56;;;18.95;71.49
42125;BME280;27787;44.594;11.046;2023-05-03T13:58:12;101467.59;;;19.06;71.93
42125;BME280;27787;44.594;11.046;2023-05-03T14:00:56;101476.41;;;19.12;71.33
42125;BME280;27787;44.594;11.046;2023-05-03T14:03:40;101474.53;;;19.19;70.64
42125;BME280;27787;44.594;11.046;2023-05-03T14:06:24;101466.22;;;19.34;70.32
42125;BME280;27787;44.594;11.046;2023-05-03T14:09:10;101471.41;;;19.45;69.99
42125;BME280;27787;44.594;11.046;2023-05-03T14:11:55;101468.53;;;19.57;70.33
42125;BME280;27787;44.594;11.046;2023-05-03T14:14:39;101462.13;;;19.64;69.15
42125;BME280;27787;44.594;11.046;2023-05-03T14:17:24;101463.69;;;19.76;69.48
42125;BME280;27787;44.594;11.046;2023-05-03T14:20:08;101468.13;;;19.77;68.05
42125;BME280;27787;44.594;11.046;2023-05-03T14:22:55;101464.66;;;19.73;66.57
42125;BME280;27787;44.594;11.046;2023-05-03T14:25:39;101471.78;;;19.74;65.94
42125;BME280;27787;44.594;11.046;2023-05-03T14:28:23;101473.53;;;19.76;65.16